createdAt,value
2022-09-07T00:00:42.641Z,9.45
2022-09-07T00:03:09.655Z,9.63
2022-09-07T00:05:43.993Z,9.15
2022-09-07T00:08:11.667Z,9.55
2022-09-07T00:10:38.894Z,9.40
2022-09-07T00:13:07.046Z,9.27
2022-09-07T00:15:34.203Z,9.55
2022-09-07T00:18:00.915Z,9.68
2022-09-07T00:20:27.631Z,9.70
2022-09-07T00:22:54.387Z,10.05
2022-09-07T00:25:21.117Z,9.43
2022-09-07T00:27:47.871Z,9.93
2022-09-07T00:30:14.610Z,10.00
2022-09-07T00:32:41.371Z,9.70
2022-09-07T00:35:08.473Z,9.77
2022-09-07T00:37:35.233Z,9.88
2022-09-07T00:40:02.393Z,10.10
2022-09-07T00:42:29.197Z,9.57
2022-09-07T00:45:12.134Z,9.40
2022-09-07T00:47:45.538Z,9.80
2022-09-07T00:50:19.294Z,9.55
2022-09-07T00:52:50.759Z,8.48
2022-09-07T00:55:19.109Z,8.93
2022-09-07T00:57:50.125Z,8.70
2022-09-07T01:00:17.408Z,9.15
2022-09-07T01:02:45.511Z,9.38
2022-09-07T01:05:46.271Z,9.35
2022-09-07T01:08:14.075Z,9.27
2022-09-07T01:10:40.824Z,9.43
2022-09-07T01:13:08.464Z,9.65
2022-09-07T01:16:02.520Z,9.60
2022-09-07T01:18:42.794Z,10.02
2022-09-07T01:21:22.109Z,9.55
2022-09-07T01:24:17.603Z,9.18
2022-09-07T01:27:18.018Z,9.63
2022-09-07T01:30:08.122Z,9.38
2022-09-07T01:32:49.879Z,9.18
2022-09-07T01:35:43.865Z,9.43
2022-09-07T01:38:31.992Z,10.68
2022-09-07T01:41:07.777Z,9.82
2022-09-07T01:43:41.558Z,10.25
2022-09-07T01:46:34.412Z,10.52
2022-09-07T01:49:08.454Z,10.95
2022-09-07T01:51:41.021Z,11.15
2022-09-07T01:54:42.048Z,12.65
2022-09-07T01:57:18.746Z,12.82
2022-09-07T01:59:52.433Z,13.05
2022-09-07T02:02:30.175Z,13.13
2022-09-07T02:05:14.570Z,13.90
2022-09-07T02:08:24.354Z,13.60
2022-09-07T02:11:20.171Z,14.80
2022-09-07T02:13:52.270Z,15.05
2022-09-07T02:16:25.755Z,14.98
2022-09-07T02:18:56.747Z,14.63
2022-09-07T02:21:41.620Z,14.50
2022-09-07T02:24:31.124Z,14.93
2022-09-07T02:26:59.591Z,14.52
2022-09-07T02:29:30.787Z,14.57
2022-09-07T02:31:57.853Z,14.35
2022-09-07T02:34:24.795Z,14.73
2022-09-07T02:36:53.736Z,14.77
2022-09-07T02:39:20.635Z,14.95
2022-09-07T02:41:47.501Z,15.27
2022-09-07T02:44:21.120Z,15.07
2022-09-07T02:47:13.106Z,14.05
2022-09-07T02:49:49.347Z,14.07
2022-09-07T02:52:44.333Z,13.80
2022-09-07T02:55:34.450Z,13.88
2022-09-07T02:58:10.127Z,13.45
2022-09-07T03:01:02.235Z,13.23
2022-09-07T03:03:49.278Z,13.77
2022-09-07T03:06:26.509Z,13.68
2022-09-07T03:08:56.225Z,13.43
2022-09-07T03:11:23.606Z,14.07
2022-09-07T03:13:50.354Z,14.23
2022-09-07T03:16:17.472Z,14.18
2022-09-07T03:18:44.555Z,14.20
2022-09-07T03:21:11.644Z,14.07
2022-09-07T03:23:38.867Z,14.10
2022-09-07T03:26:05.935Z,14.55
2022-09-07T03:28:32.691Z,14.18
2022-09-07T03:31:02.096Z,14.10
2022-09-07T03:33:28.979Z,13.70
2022-09-07T03:36:02.391Z,14.57
2022-09-07T03:38:30.808Z,14.25
2022-09-07T03:41:02.674Z,14.65
2022-09-07T03:43:31.021Z,14.35
2022-09-07T03:46:03.397Z,15.05
2022-09-07T03:48:32.037Z,15.02
2022-09-07T03:51:01.708Z,14.77
2022-09-07T03:53:34.053Z,14.10
2022-09-07T03:56:03.974Z,15.02
2022-09-07T03:58:32.687Z,15.63
2022-09-07T04:01:04.648Z,16.88
2022-09-07T04:03:31.487Z,15.73
2022-09-07T04:06:02.000Z,15.27
2022-09-07T04:08:34.400Z,15.85
2022-09-07T04:11:03.117Z,15.40
2022-09-07T04:13:30.742Z,14.70
2022-09-07T04:15:57.814Z,16.70
2022-09-07T04:18:25.364Z,15.40
2022-09-07T04:20:52.411Z,15.20
2022-09-07T04:23:19.757Z,14.32
2022-09-07T04:25:51.041Z,15.63
2022-09-07T04:28:20.499Z,16.23
2022-09-07T04:30:47.448Z,15.43
2022-09-07T04:33:15.433Z,14.98
2022-09-07T04:35:43.587Z,14.98
2022-09-07T04:38:14.237Z,15.25
2022-09-07T04:40:41.356Z,16.88
2022-09-07T04:43:09.559Z,16.85
2022-09-07T04:45:37.407Z,18.42
2022-09-07T04:48:05.136Z,18.17
2022-09-07T04:50:32.666Z,20.95
2022-09-07T04:52:59.439Z,19.75
2022-09-07T04:55:26.273Z,19.33
2022-09-07T04:57:53.013Z,20.13
2022-09-07T05:00:19.776Z,20.00
2022-09-07T05:02:46.755Z,19.75
2022-09-07T05:05:13.752Z,20.50
2022-09-07T05:07:40.590Z,20.10
2022-09-07T05:10:07.663Z,18.58
2022-09-07T05:12:34.439Z,19.58
2022-09-07T05:15:01.650Z,20.27
2022-09-07T05:17:31.005Z,20.05
2022-09-07T05:19:58.157Z,19.83
2022-09-07T05:22:27.583Z,20.05
2022-09-07T05:24:54.363Z,19.63
2022-09-07T05:27:21.111Z,19.95
2022-09-07T05:30:04.477Z,18.95
2022-09-07T05:32:32.084Z,19.65
2022-09-07T05:34:58.901Z,19.60
2022-09-07T05:37:25.606Z,18.50
2022-09-07T05:39:55.035Z,18.02
2022-09-07T05:42:22.724Z,17.30
2022-09-07T05:44:49.446Z,17.27
2022-09-07T05:47:16.323Z,16.88
2022-09-07T05:49:43.141Z,17.35
2022-09-07T05:52:10.592Z,17.08
2022-09-07T05:54:37.409Z,16.23
2022-09-07T05:57:04.408Z,17.30
2022-09-07T05:59:31.244Z,17.77
2022-09-07T06:01:58.049Z,17.63
2022-09-07T06:04:24.918Z,17.48
2022-09-07T06:07:20.132Z,17.38
2022-09-07T06:12:25.800Z,16.90
2022-09-07T06:14:52.536Z,16.88
2022-09-07T06:17:19.692Z,17.60
2022-09-07T06:19:46.411Z,17.65
2022-09-07T06:22:13.336Z,16.77
2022-09-07T06:24:40.057Z,17.92
2022-09-07T06:27:06.812Z,18.52
2022-09-07T06:29:33.546Z,18.50
2022-09-07T06:34:47.043Z,16.65
2022-09-07T06:37:14.042Z,18.00
2022-09-07T06:39:40.844Z,18.60
2022-09-07T06:42:07.615Z,17.30
2022-09-07T06:44:34.681Z,18.17
2022-09-07T06:49:33.230Z,17.27
2022-09-07T06:51:59.998Z,19.10
2022-09-07T06:57:13.619Z,18.08
2022-09-07T06:59:40.415Z,19.02
2022-09-07T07:02:09.505Z,18.77
2022-09-07T07:04:40.628Z,18.70
2022-09-07T07:07:14.343Z,17.65
2022-09-07T07:09:42.016Z,16.92
2022-09-07T07:12:10.068Z,16.33
2022-09-07T07:14:39.719Z,16.67
2022-09-07T07:17:10.242Z,14.52
2022-09-07T07:19:37.003Z,13.80
2022-09-07T07:22:42.958Z,11.52
2022-09-07T07:24:50.449Z,11.45
2022-09-07T07:27:17.575Z,10.75
2022-09-07T07:29:44.454Z,8.75
2022-09-07T07:32:11.178Z,9.32
2022-09-07T07:34:38.067Z,9.35
2022-09-07T07:37:04.850Z,8.70
2022-09-07T07:42:18.479Z,6.78
2022-09-07T07:44:45.276Z,6.82
2022-09-07T07:47:12.067Z,5.70
2022-09-07T07:49:38.733Z,5.88
2022-09-07T07:54:53.089Z,4.10
2022-09-07T07:57:19.853Z,5.32
2022-09-07T07:59:46.560Z,4.60
2022-09-07T08:02:17.270Z,3.70
2022-09-07T08:04:44.264Z,4.10
2022-09-07T08:07:12.466Z,4.15
2022-09-07T08:09:40.741Z,4.15
2022-09-07T08:12:08.475Z,3.50
2022-09-07T08:14:40.612Z,3.90
2022-09-07T08:17:08.712Z,3.67
2022-09-07T08:19:36.027Z,4.10
2022-09-07T08:22:03.863Z,3.67
2022-09-07T08:24:31.976Z,3.47
2022-09-07T08:26:58.888Z,3.25
2022-09-07T08:29:25.568Z,3.08
2022-09-07T08:31:52.378Z,3.13
2022-09-07T08:34:19.272Z,3.30
2022-09-07T08:36:46.015Z,2.70
2022-09-07T08:39:13.081Z,3.05
2022-09-07T08:41:55.123Z,3.40
2022-09-07T08:44:27.636Z,3.20
2022-09-07T08:46:54.440Z,3.08
2022-09-07T08:49:46.515Z,2.90
2022-09-07T08:52:21.487Z,2.83
2022-09-07T08:55:00.515Z,3.60
2022-09-07T08:57:31.200Z,3.60
2022-09-07T09:00:13.884Z,3.28
2022-09-07T09:02:44.277Z,3.38
2022-09-07T09:05:35.958Z,3.35
2022-09-07T09:08:18.293Z,3.17
2022-09-07T09:11:29.493Z,3.00
2022-09-07T09:14:10.498Z,2.60
2022-09-07T09:16:43.652Z,2.40
2022-09-07T09:19:41.383Z,2.63
2022-09-07T09:22:15.696Z,2.30
2022-09-07T09:24:55.605Z,2.20
2022-09-07T09:27:22.571Z,2.97
2022-09-07T09:29:49.374Z,2.03
2022-09-07T09:32:39.847Z,2.13
2022-09-07T09:35:28.791Z,2.00
2022-09-07T09:37:57.739Z,1.88
2022-09-07T09:40:36.930Z,1.80
2022-09-07T09:43:18.328Z,1.60
2022-09-07T09:48:40.391Z,1.95
2022-09-07T09:54:00.006Z,1.90
2022-09-07T09:56:43.758Z,1.80
2022-09-07T10:05:36.260Z,1.50
2022-09-07T10:08:15.208Z,1.90
2022-09-07T10:11:15.572Z,1.60
2022-09-07T10:13:55.741Z,1.30
2022-09-07T10:16:39.228Z,1.52
2022-09-07T10:19:06.086Z,1.52
2022-09-07T10:21:33.228Z,1.60
2022-09-07T10:24:00.939Z,1.92
2022-09-07T10:26:33.362Z,1.60
2022-09-07T10:29:14.009Z,1.70
2022-09-07T10:32:19.773Z,1.60
2022-09-07T10:35:22.451Z,2.17
2022-09-07T10:38:04.127Z,1.85
2022-09-07T10:40:58.598Z,1.17
2022-09-07T10:43:47.206Z,1.23
2022-09-07T10:46:59.658Z,1.40
2022-09-07T10:52:39.169Z,1.55
2022-09-07T10:55:35.736Z,1.55
2022-09-07T10:59:01.394Z,1.80
2022-09-07T11:01:26.892Z,1.40
2022-09-07T11:03:53.736Z,1.60
2022-09-07T11:06:27.066Z,1.50
2022-09-07T11:09:30.539Z,1.65
2022-09-07T11:12:21.307Z,1.58
2022-09-07T11:14:56.146Z,1.75
2022-09-07T11:17:26.527Z,1.40
2022-09-07T11:20:08.874Z,1.40
2022-09-07T11:22:43.449Z,1.20
2022-09-07T11:25:31.593Z,1.40
2022-09-07T11:28:22.905Z,1.42
2022-09-07T11:31:04.249Z,1.50
2022-09-07T11:33:37.716Z,1.83
2022-09-07T11:36:16.500Z,1.23
2022-09-07T11:38:51.266Z,1.67
2022-09-07T11:41:22.875Z,1.45
2022-09-07T11:44:21.828Z,1.55
2022-09-07T11:46:53.253Z,1.45
2022-09-07T11:49:25.996Z,1.45
2022-09-07T11:52:05.279Z,1.45
2022-09-07T11:54:45.803Z,1.40
2022-09-07T11:57:15.317Z,1.50
2022-09-07T12:00:00.747Z,1.30
2022-09-07T12:03:00.285Z,1.73
2022-09-07T12:05:48.879Z,1.45
2022-09-07T12:08:31.107Z,1.70
2022-09-07T12:11:08.282Z,1.40
2022-09-07T12:13:50.731Z,1.83
2022-09-07T12:16:36.594Z,1.70
2022-09-07T12:19:19.073Z,1.63
2022-09-07T12:21:55.200Z,1.63
2022-09-07T12:24:42.133Z,1.52
2022-09-07T12:27:10.284Z,1.65
2022-09-07T12:29:45.159Z,1.40
2022-09-07T12:34:59.877Z,1.23
2022-09-07T12:37:26.750Z,1.30
2022-09-07T12:40:28.597Z,1.40
2022-09-07T12:43:13.488Z,1.48
2022-09-07T12:45:40.311Z,1.33
2022-09-07T12:48:15.943Z,1.80
2022-09-07T12:54:32.776Z,1.58
2022-09-07T12:57:29.693Z,1.70
2022-09-07T13:00:20.749Z,1.55
2022-09-07T13:02:57.813Z,1.40
2022-09-07T13:05:30.673Z,1.50
2022-09-07T13:08:08.847Z,1.70
2022-09-07T13:10:43.408Z,1.48
2022-09-07T13:13:16.828Z,1.40
2022-09-07T13:15:48.873Z,1.80
2022-09-07T13:18:28.494Z,1.42
2022-09-07T13:21:07.345Z,1.42
2022-09-07T13:23:38.136Z,1.83
2022-09-07T13:26:09.088Z,1.55
2022-09-07T13:28:58.096Z,1.90
2022-09-07T13:31:48.490Z,1.40
2022-09-07T13:34:54.591Z,1.52
2022-09-07T13:37:26.237Z,1.67
2022-09-07T13:39:58.281Z,1.70
2022-09-07T13:42:31.840Z,2.30
2022-09-07T13:45:05.122Z,1.70
2022-09-07T13:47:35.258Z,1.52
2022-09-07T13:50:36.300Z,1.60
2022-09-07T13:53:12.197Z,1.70
2022-09-07T13:56:01.102Z,1.58
2022-09-07T13:58:37.829Z,1.55
2022-09-07T14:01:21.829Z,1.52
2022-09-07T14:03:52.726Z,1.90
2022-09-07T14:06:22.429Z,1.30
2022-09-07T14:08:58.597Z,1.83
2022-09-07T14:11:49.179Z,1.90
2022-09-07T14:14:20.548Z,1.65
2022-09-07T14:17:00.938Z,1.48
2022-09-07T14:19:41.425Z,1.63
2022-09-07T14:22:18.566Z,1.80
2022-09-07T14:24:55.577Z,1.50
2022-09-07T14:27:41.134Z,1.42
2022-09-07T14:30:25.646Z,1.90
2022-09-07T14:33:03.879Z,1.90
2022-09-07T14:35:34.952Z,1.88
2022-09-07T14:41:15.846Z,1.83
2022-09-07T14:43:56.961Z,2.00
2022-09-07T14:46:25.917Z,1.83
2022-09-07T14:49:02.663Z,1.88
2022-09-07T14:51:36.102Z,1.80
2022-09-07T14:54:06.165Z,1.70
2022-09-07T14:56:41.620Z,1.80
2022-09-07T14:59:38.894Z,1.73
2022-09-07T15:02:26.990Z,1.60
2022-09-07T15:05:18.194Z,1.60
2022-09-07T15:07:54.446Z,1.65
2022-09-07T15:10:21.207Z,1.77
2022-09-07T15:13:22.392Z,1.63
2022-09-07T15:15:57.434Z,1.50
2022-09-07T15:18:47.256Z,2.10
2022-09-07T15:21:14.009Z,1.65
2022-09-07T15:23:40.779Z,1.75
2022-09-07T15:27:02.009Z,1.65
2022-09-07T15:29:13.435Z,1.85
2022-09-07T15:31:43.632Z,1.77
2022-09-07T15:34:13.722Z,1.52
2022-09-07T15:36:44.074Z,1.98
2022-09-07T15:39:22.596Z,1.80
2022-09-07T15:41:51.432Z,2.03
2022-09-07T15:44:22.849Z,1.73
2022-09-07T15:49:40.090Z,1.65
2022-09-07T15:52:09.097Z,1.50
2022-09-07T15:54:39.422Z,1.70
2022-09-07T15:59:53.753Z,1.70
2022-09-07T16:05:08.216Z,1.77
2022-09-07T16:10:21.863Z,1.90
2022-09-07T16:13:10.419Z,1.90
2022-09-07T16:15:36.001Z,1.60
2022-09-07T16:18:03.027Z,1.75
2022-09-07T16:20:32.759Z,2.28
2022-09-07T16:23:16.022Z,2.10
2022-09-07T16:25:54.248Z,1.63
2022-09-07T16:28:20.931Z,2.00
2022-09-07T16:30:48.159Z,1.55
2022-09-07T16:33:15.227Z,1.98
2022-09-07T16:35:42.223Z,1.58
2022-09-07T16:40:55.634Z,1.63
2022-09-07T16:43:22.345Z,1.55
2022-09-07T16:46:04.854Z,1.90
2022-09-07T16:48:34.095Z,1.60
2022-09-07T16:51:02.731Z,1.52
2022-09-07T16:53:31.646Z,1.58
2022-09-07T16:56:02.605Z,1.60
2022-09-07T16:58:38.338Z,1.40
2022-09-07T17:01:11.612Z,1.75
2022-09-07T17:03:39.337Z,1.50
2022-09-07T17:06:08.183Z,2.00
2022-09-07T17:08:36.466Z,1.48
2022-09-07T17:11:12.589Z,1.70
2022-09-07T17:13:40.691Z,1.52
2022-09-07T17:16:10.603Z,1.60
2022-09-07T17:21:24.719Z,1.63
2022-09-07T17:23:55.582Z,1.52
2022-09-07T17:26:26.695Z,1.80
2022-09-07T17:28:56.620Z,1.50
2022-09-07T17:34:19.767Z,2.15
2022-09-07T17:36:46.920Z,1.83
2022-09-07T17:39:15.017Z,1.50
2022-09-07T17:41:43.715Z,1.85
2022-09-07T17:44:10.550Z,2.10
2022-09-07T17:46:37.408Z,1.50
2022-09-07T17:49:05.213Z,2.00
2022-09-07T17:51:32.873Z,1.77
2022-09-07T17:54:09.708Z,1.88
2022-09-07T17:56:37.424Z,1.95
2022-09-07T18:01:51.180Z,1.90
2022-09-07T18:04:17.943Z,1.98
2022-09-07T18:06:44.711Z,1.70
2022-09-07T18:09:13.959Z,1.63
2022-09-07T18:11:47.085Z,1.88
2022-09-07T18:14:15.348Z,2.00
2022-09-07T18:16:44.389Z,1.80
2022-09-07T18:19:12.260Z,2.13
2022-09-07T18:21:41.841Z,1.75
2022-09-07T18:24:14.006Z,2.20
2022-09-07T18:26:41.173Z,1.80
2022-09-07T18:29:25.978Z,1.80
2022-09-07T18:31:54.957Z,1.60
2022-09-07T18:34:22.279Z,1.95
2022-09-07T18:36:49.068Z,2.00
2022-09-07T18:39:15.822Z,1.75
2022-09-07T18:41:42.663Z,2.15
2022-09-07T18:46:56.361Z,1.95
2022-09-07T18:49:23.557Z,1.80
2022-09-07T18:54:38.661Z,1.90
2022-09-07T18:57:06.689Z,1.77
2022-09-07T18:59:34.400Z,1.77
2022-09-07T19:02:04.339Z,2.13
2022-09-07T19:07:20.882Z,1.80
2022-09-07T19:09:48.510Z,1.83
2022-09-07T19:12:15.657Z,1.88
2022-09-07T19:14:42.465Z,1.75
2022-09-07T19:17:11.051Z,1.80
2022-09-07T19:19:39.637Z,1.85
2022-09-07T19:22:06.566Z,2.20
2022-09-07T19:24:33.464Z,1.50
2022-09-07T19:27:01.000Z,1.40
2022-09-07T19:29:28.592Z,1.70
2022-09-07T19:32:04.479Z,1.90
2022-09-07T19:34:33.134Z,1.92
2022-09-07T19:37:00.459Z,1.90
2022-09-07T19:39:27.824Z,2.03
2022-09-07T19:41:54.779Z,1.73
2022-09-07T19:44:21.472Z,1.65
2022-09-07T19:46:48.581Z,1.80
2022-09-07T19:49:15.423Z,1.83
2022-09-07T19:51:42.943Z,1.85
2022-09-07T19:54:11.097Z,1.95
2022-09-07T19:56:39.254Z,1.65
2022-09-07T19:59:06.195Z,1.73
2022-09-07T20:01:33.957Z,1.75
2022-09-07T20:04:10.787Z,1.88
2022-09-07T20:06:39.401Z,2.22
2022-09-07T20:09:07.999Z,1.98
2022-09-07T20:11:35.616Z,1.75
2022-09-07T20:14:02.532Z,1.73
2022-09-07T20:16:29.918Z,2.15
2022-09-07T20:18:57.281Z,1.60
2022-09-07T20:21:25.994Z,1.90
2022-09-07T20:23:52.728Z,1.45
2022-09-07T20:26:21.638Z,1.88
2022-09-07T20:29:05.912Z,1.50
2022-09-07T20:31:41.655Z,1.98
2022-09-07T20:34:09.582Z,2.25
2022-09-07T20:36:36.871Z,2.00
2022-09-07T20:39:06.985Z,2.03
2022-09-07T20:41:34.953Z,1.92
2022-09-07T20:44:03.303Z,1.70
2022-09-07T20:46:31.253Z,1.70
2022-09-07T20:48:58.619Z,1.98
2022-09-07T20:51:25.685Z,1.77
2022-09-07T20:53:52.702Z,1.88
2022-09-07T20:56:26.066Z,1.80
2022-09-07T20:58:57.857Z,1.92
2022-09-07T21:01:24.994Z,1.90
2022-09-07T21:03:54.058Z,2.00
2022-09-07T21:06:22.179Z,1.70
2022-09-07T21:08:49.940Z,1.58
2022-09-07T21:11:24.340Z,1.90
2022-09-07T21:14:07.147Z,1.90
2022-09-07T21:16:34.907Z,1.73
2022-09-07T21:19:02.901Z,1.75
2022-09-07T21:21:37.753Z,1.90
2022-09-07T21:24:06.007Z,1.92
2022-09-07T21:26:33.027Z,2.00
2022-09-07T21:29:01.953Z,1.52
2022-09-07T21:31:31.119Z,2.00
2022-09-07T21:34:00.534Z,1.48
2022-09-07T21:36:28.044Z,1.60
2022-09-07T21:38:55.825Z,1.60
2022-09-07T21:41:24.322Z,1.65
2022-09-07T21:44:00.573Z,1.88
2022-09-07T21:46:29.546Z,1.70
2022-09-07T21:48:58.058Z,1.70
2022-09-07T21:51:26.230Z,2.00
2022-09-07T21:53:58.279Z,1.98
2022-09-07T21:56:25.706Z,1.88
2022-09-07T21:58:56.858Z,1.92
2022-09-07T22:01:25.175Z,2.15
2022-09-07T22:04:03.892Z,2.00
2022-09-07T22:06:32.441Z,1.92
2022-09-07T22:08:59.854Z,2.25
2022-09-07T22:11:28.459Z,2.05
2022-09-07T22:14:01.497Z,1.80
2022-09-07T22:16:28.832Z,1.98
2022-09-07T22:18:55.727Z,2.30
2022-09-07T22:21:28.089Z,2.53
2022-09-07T22:23:57.498Z,1.90
2022-09-07T22:26:26.301Z,2.17
2022-09-07T22:28:53.081Z,2.10
2022-09-07T22:31:28.979Z,2.15
2022-09-07T22:33:57.305Z,2.08
2022-09-07T22:36:26.007Z,1.80
2022-09-07T22:38:54.923Z,2.50
2022-09-07T22:41:25.889Z,2.10
2022-09-07T22:43:52.640Z,2.38
2022-09-07T22:46:22.364Z,2.50
2022-09-07T22:48:49.731Z,2.08
2022-09-07T22:51:17.173Z,2.47
2022-09-07T22:53:44.333Z,2.00
2022-09-07T22:56:17.144Z,1.83
2022-09-07T22:58:52.545Z,2.28
2022-09-07T23:01:20.944Z,2.00
2022-09-07T23:03:48.341Z,2.00
2022-09-07T23:06:30.754Z,1.60
2022-09-07T23:08:58.971Z,1.70
2022-09-07T23:11:26.694Z,1.63
2022-09-07T23:13:58.881Z,1.60
2022-09-07T23:16:28.027Z,1.52
2022-09-07T23:18:55.933Z,1.30
2022-09-07T23:21:22.811Z,1.60
2022-09-07T23:23:54.776Z,1.58
2022-09-07T23:26:23.385Z,1.30
2022-09-07T23:28:54.809Z,1.27
2022-09-07T23:31:23.271Z,1.42
2022-09-07T23:33:50.467Z,1.63
2022-09-07T23:36:18.404Z,1.52
2022-09-07T23:38:46.289Z,1.40
2022-09-07T23:41:14.184Z,1.30
2022-09-07T23:43:41.674Z,1.80
2022-09-07T23:46:09.604Z,1.60
2022-09-07T23:48:36.608Z,1.27
2022-09-07T23:51:03.431Z,1.45
2022-09-07T23:53:30.266Z,1.60
2022-09-07T23:55:57.154Z,2.00
2022-09-07T23:58:24.083Z,1.70
